sensor_id;sensor_type;location;lat;lon;timestamp;pressure;altitude;pressure_sealevel;temperature;humidity
33163;BME280;29282;45.656;11.302;2022-07-29T00:00:41;98351.03;;;26.65;45.90
33163;BME280;29282;45.656;11.302;2022-07-29T00:03:10;98346.34;;;26.73;45.91
33163;BME280;29282;45.656;11.302;2022-07-29T00:05:38;98337.22;;;26.73;45.84
33163;BME280;29282;45.656;11.302;2022-07-29T00:08:04;98331.66;;;26.76;45.77
33163;BME280;29282;45.656;11.302;2022-07-29T00:10:29;98334.44;;;26.73;46.24
33163;BME280;29282;45.656;11.302;2022-07-29T00:12:55;98322.13;;;26.74;45.87
33163;BME280;29282;45.656;11.302;2022-07-29T00:15:20;98317.34;;;26.70;46.18
33163;BME280;29282;45.656;11.302;2022-07-29T00:17:46;98301.78;;;26.59;46.49
33163;BME280;29282;45.656;11.302;2022-07-29T00:20:11;98291.88;;;26.58;46.52
33163;BME280;29282;45.656;11.302;2022-07-29T00:22:39;98288.31;;;26.64;46.51
33163;BME280;29282;45.656;11.302;2022-07-29T00:25:06;98289.50;;;26.56;46.87
33163;BME280;29282;45.656;11.302;2022-07-29T00:27:34;98286.34;;;26.68;46.39
33163;BME280;29282;45.656;11.302;2022-07-29T00:29:59;98284.41;;;26.73;46.31
33163;BME280;29282;45.656;11.302;2022-07-29T00:32:25;98281.63;;;26.69;46.57
33163;BME280;29282;45.656;11.302;2022-07-29T00:34:50;98279.16;;;26.53;47.04
33163;BME280;29282;45.656;11.302;2022-07-29T00:37:34;98273.59;;;26.50;46.96
33163;BME280;29282;45.656;11.302;2022-07-29T00:40:00;98277.06;;;26.36;47.97
33163;BME280;29282;45.656;11.302;2022-07-29T00:42:25;98258.50;;;26.54;47.23
33163;BME280;29282;45.656;11.302;2022-07-29T00:44:51;98260.16;;;26.62;46.87
33163;BME280;29282;45.656;11.302;2022-07-29T00:47:16;98257.00;;;26.71;46.82
33163;BME280;29282;45.656;11.302;2022-07-29T00:49:42;98242.63;;;26.51;47.26
33163;BME280;29282;45.656;11.302;2022-07-29T00:52:09;98248.03;;;26.26;47.96
33163;BME280;29282;45.656;11.302;2022-07-29T00:54:36;98243.41;;;26.52;46.98
33163;BME280;29282;45.656;11.302;2022-07-29T00:57:03;98239.34;;;26.35;47.44
33163;BME280;29282;45.656;11.302;2022-07-29T00:59:28;98238.56;;;26.38;47.55
33163;BME280;29282;45.656;11.302;2022-07-29T01:01:54;98241.66;;;26.25;47.79
33163;BME280;29282;45.656;11.302;2022-07-29T01:04:21;98245.09;;;26.05;48.46
33163;BME280;29282;45.656;11.302;2022-07-29T01:06:47;98240.22;;;25.84;48.90
33163;BME280;29282;45.656;11.302;2022-07-29T01:09:14;98241.00;;;25.84;48.93
33163;BME280;29282;45.656;11.302;2022-07-29T01:11:41;98242.72;;;26.03;48.37
33163;BME280;29282;45.656;11.302;2022-07-29T01:14:08;98244.41;;;26.22;47.65
33163;BME280;29282;45.656;11.302;2022-07-29T01:16:42;98240.81;;;26.14;47.89
33163;BME280;29282;45.656;11.302;2022-07-29T01:19:48;98244.25;;;25.93;48.61
33163;BME280;29282;45.656;11.302;2022-07-29T01:28:06;98244.25;;;25.49;49.47
33163;BME280;29282;45.656;11.302;2022-07-29T01:30:35;98234.72;;;25.91;48.56
33163;BME280;29282;45.656;11.302;2022-07-29T01:33:06;98233.13;;;25.90;48.42
33163;BME280;29282;45.656;11.302;2022-07-29T01:35:39;98235.13;;;25.93;48.42
33163;BME280;29282;45.656;11.302;2022-07-29T01:38:10;98240.34;;;26.05;48.03
33163;BME280;29282;45.656;11.302;2022-07-29T01:40:42;98236.53;;;25.76;48.78
33163;BME280;29282;45.656;11.302;2022-07-29T01:43:12;98239.19;;;26.06;47.92
33163;BME280;29282;45.656;11.302;2022-07-29T01:46:02;98235.28;;;26.21;47.63
33163;BME280;29282;45.656;11.302;2022-07-29T01:51:20;98236.28;;;25.92;48.48
33163;BME280;29282;45.656;11.302;2022-07-29T01:54:10;98240.47;;;26.23;47.52
33163;BME280;29282;45.656;11.302;2022-07-29T01:56:37;98242.06;;;26.28;47.45
33163;BME280;29282;45.656;11.302;2022-07-29T01:59:06;98231.97;;;25.98;48.23
33163;BME280;29282;45.656;11.302;2022-07-29T02:01:34;98236.09;;;26.25;47.40
33163;BME280;29282;45.656;11.302;2022-07-29T02:04:06;98229.44;;;26.37;47.18
33163;BME280;29282;45.656;11.302;2022-07-29T02:06:34;98228.56;;;26.22;47.85
33163;BME280;29282;45.656;11.302;2022-07-29T02:09:03;98221.09;;;26.34;47.13
33163;BME280;29282;45.656;11.302;2022-07-29T02:11:31;98229.88;;;26.43;47.13
33163;BME280;29282;45.656;11.302;2022-07-29T02:14:00;98226.22;;;26.35;47.15
33163;BME280;29282;45.656;11.302;2022-07-29T02:16:26;98228.16;;;26.24;47.46
33163;BME280;29282;45.656;11.302;2022-07-29T02:18:54;98227.72;;;26.15;47.30
33163;BME280;29282;45.656;11.302;2022-07-29T02:21:24;98230.16;;;26.23;47.45
33163;BME280;29282;45.656;11.302;2022-07-29T02:23:51;98222.66;;;26.35;47.02
33163;BME280;29282;45.656;11.302;2022-07-29T02:26:20;98223.50;;;26.42;47.07
33163;BME280;29282;45.656;11.302;2022-07-29T02:28:48;98225.09;;;26.43;46.97
33163;BME280;29282;45.656;11.302;2022-07-29T02:31:16;98219.53;;;26.40;47.16
33163;BME280;29282;45.656;11.302;2022-07-29T02:33:45;98217.13;;;26.38;47.01
33163;BME280;29282;45.656;11.302;2022-07-29T02:36:12;98224.31;;;26.43;46.98
33163;BME280;29282;45.656;11.302;2022-07-29T02:38:41;98216.31;;;26.31;47.28
33163;BME280;29282;45.656;11.302;2022-07-29T02:41:30;98224.84;;;25.97;48.21
33163;BME280;29282;45.656;11.302;2022-07-29T02:44:13;98230.16;;;26.23;47.49
33163;BME280;29282;45.656;11.302;2022-07-29T02:46:45;98217.09;;;26.35;47.04
33163;BME280;29282;45.656;11.302;2022-07-29T02:49:42;98227.34;;;26.16;47.55
33163;BME280;29282;45.656;11.302;2022-07-29T02:52:19;98229.13;;;25.87;48.06
33163;BME280;29282;45.656;11.302;2022-07-29T02:57:58;98240.44;;;26.16;47.14
33163;BME280;29282;45.656;11.302;2022-07-29T03:00:28;98247.25;;;26.29;46.82
33163;BME280;29282;45.656;11.302;2022-07-29T03:02:56;98243.31;;;26.37;46.66
33163;BME280;29282;45.656;11.302;2022-07-29T03:05:24;98233.81;;;26.42;46.80
33163;BME280;29282;45.656;11.302;2022-07-29T03:07:54;98245.59;;;26.21;47.35
33163;BME280;29282;45.656;11.302;2022-07-29T03:10:21;98248.84;;;26.34;47.01
33163;BME280;29282;45.656;11.302;2022-07-29T03:12:47;98248.09;;;26.40;46.55
33163;BME280;29282;45.656;11.302;2022-07-29T03:15:13;98249.69;;;26.45;46.81
33163;BME280;29282;45.656;11.302;2022-07-29T03:17:39;98244.13;;;26.45;46.80
33163;BME280;29282;45.656;11.302;2022-07-29T03:20:06;98241.34;;;26.41;46.85
33163;BME280;29282;45.656;11.302;2022-07-29T03:22:32;98250.09;;;26.40;47.16
33163;BME280;29282;45.656;11.302;2022-07-29T03:25:07;98239.34;;;26.42;46.79
33163;BME280;29282;45.656;11.302;2022-07-29T03:27:33;98249.59;;;26.23;47.27
33163;BME280;29282;45.656;11.302;2022-07-29T03:29:59;98251.03;;;25.99;47.70
33163;BME280;29282;45.656;11.302;2022-07-29T03:32:24;98244.41;;;26.18;47.45
33163;BME280;29282;45.656;11.302;2022-07-29T03:34:50;98250.81;;;26.26;47.15
33163;BME280;29282;45.656;11.302;2022-07-29T03:37:15;98250.03;;;26.29;46.95
33163;BME280;29282;45.656;11.302;2022-07-29T03:39:41;98246.81;;;26.23;46.88
33163;BME280;29282;45.656;11.302;2022-07-29T03:42:10;98255.94;;;26.24;46.92
33163;BME280;29282;45.656;11.302;2022-07-29T03:44:37;98254.38;;;26.27;46.88
33163;BME280;29282;45.656;11.302;2022-07-29T03:47:05;98256.78;;;26.32;46.93
33163;BME280;29282;45.656;11.302;2022-07-29T03:49:32;98260.75;;;26.34;46.69
33163;BME280;29282;45.656;11.302;2022-07-29T03:52:01;98256.78;;;26.35;46.65
33163;BME280;29282;45.656;11.302;2022-07-29T03:54:26;98258.78;;;26.38;46.50
33163;BME280;29282;45.656;11.302;2022-07-29T03:56:52;98253.25;;;26.38;46.47
33163;BME280;29282;45.656;11.302;2022-07-29T03:59:19;98248.09;;;26.40;46.52
33163;BME280;29282;45.656;11.302;2022-07-29T04:01:46;98246.50;;;26.39;46.57
33163;BME280;29282;45.656;11.302;2022-07-29T04:04:12;98259.94;;;26.27;46.74
33163;BME280;29282;45.656;11.302;2022-07-29T04:06:42;98256.38;;;26.30;46.67
33163;BME280;29282;45.656;11.302;2022-07-29T04:09:09;98258.78;;;26.35;46.55
33163;BME280;29282;45.656;11.302;2022-07-29T04:11:36;98256.00;;;26.38;46.49
33163;BME280;29282;45.656;11.302;2022-07-29T04:14:03;98265.56;;;26.41;46.41
33163;BME280;29282;45.656;11.302;2022-07-29T04:16:29;98262.00;;;26.40;46.55
33163;BME280;29282;45.656;11.302;2022-07-29T04:18:54;98253.66;;;26.40;46.55
33163;BME280;29282;45.656;11.302;2022-07-29T04:21:20;98259.22;;;26.40;46.57
33163;BME280;29282;45.656;11.302;2022-07-29T04:23:45;98263.56;;;26.41;46.62
33163;BME280;29282;45.656;11.302;2022-07-29T04:26:18;98258.00;;;26.38;46.61
33163;BME280;29282;45.656;11.302;2022-07-29T04:28:44;98263.91;;;26.29;46.75
33163;BME280;29282;45.656;11.302;2022-07-29T04:31:11;98262.66;;;26.19;47.01
33163;BME280;29282;45.656;11.302;2022-07-29T04:33:37;98268.63;;;26.21;46.99
33163;BME280;29282;45.656;11.302;2022-07-29T04:36:03;98265.50;;;26.27;46.65
33163;BME280;29282;45.656;11.302;2022-07-29T04:38:28;98272.59;;;26.20;46.84
33163;BME280;29282;45.656;11.302;2022-07-29T04:40:54;98276.59;;;26.27;46.63
33163;BME280;29282;45.656;11.302;2022-07-29T04:43:19;98268.63;;;26.21;46.35
33163;BME280;29282;45.656;11.302;2022-07-29T04:45:45;98266.13;;;26.06;46.71
33163;BME280;29282;45.656;11.302;2022-07-29T04:48:10;98271.41;;;26.21;46.58
33163;BME280;29282;45.656;11.302;2022-07-29T04:50:39;98277.00;;;26.29;46.72
33163;BME280;29282;45.656;11.302;2022-07-29T04:53:05;98282.84;;;23.34;54.11
33163;BME280;29282;45.656;11.302;2022-07-29T04:55:31;98278.97;;;22.58;57.06
33163;BME280;29282;45.656;11.302;2022-07-29T04:57:56;98276.78;;;22.86;56.00
33163;BME280;29282;45.656;11.302;2022-07-29T05:00:22;98276.78;;;22.86;56.00
33163;BME280;29282;45.656;11.302;2022-07-29T05:02:48;98276.44;;;22.49;57.65
33163;BME280;29282;45.656;11.302;2022-07-29T05:05:14;98279.56;;;22.86;56.51
33163;BME280;29282;45.656;11.302;2022-07-29T05:07:40;98279.59;;;22.32;58.09
33163;BME280;29282;45.656;11.302;2022-07-29T05:10:05;98281.00;;;22.61;57.68
33163;BME280;29282;45.656;11.302;2022-07-29T05:12:31;98283.84;;;22.64;57.62
33163;BME280;29282;45.656;11.302;2022-07-29T05:14:56;98287.06;;;22.86;56.96
33163;BME280;29282;45.656;11.302;2022-07-29T05:17:22;98287.69;;;22.79;57.14
33163;BME280;29282;45.656;11.302;2022-07-29T05:19:47;98282.19;;;22.79;56.70
33163;BME280;29282;45.656;11.302;2022-07-29T05:22:13;98288.31;;;23.31;55.52
33163;BME280;29282;45.656;11.302;2022-07-29T05:24:38;98290.22;;;23.69;54.36
33163;BME280;29282;45.656;11.302;2022-07-29T05:27:09;98286.28;;;23.28;55.68
33163;BME280;29282;45.656;11.302;2022-07-29T05:29:34;98289.16;;;23.54;54.99
33163;BME280;29282;45.656;11.302;2022-07-29T05:32:00;98292.78;;;23.81;54.20
33163;BME280;29282;45.656;11.302;2022-07-29T05:34:25;98294.38;;;23.82;54.43
33163;BME280;29282;45.656;11.302;2022-07-29T05:36:51;98301.13;;;23.62;55.16
33163;BME280;29282;45.656;11.302;2022-07-29T05:39:17;98295.09;;;23.33;54.96
33163;BME280;29282;45.656;11.302;2022-07-29T05:41:42;98294.53;;;23.93;53.59
33163;BME280;29282;45.656;11.302;2022-07-29T05:44:07;98283.44;;;24.43;51.89
33163;BME280;29282;45.656;11.302;2022-07-29T05:46:33;98291.09;;;24.26;52.20
33163;BME280;29282;45.656;11.302;2022-07-29T05:48:58;98281.06;;;24.41;52.24
33163;BME280;29282;45.656;11.302;2022-07-29T05:51:24;98287.81;;;24.74;51.00
33163;BME280;29282;45.656;11.302;2022-07-29T05:53:49;98289.25;;;24.94;50.33
33163;BME280;29282;45.656;11.302;2022-07-29T05:56:15;98290.53;;;25.04;50.34
33163;BME280;29282;45.656;11.302;2022-07-29T05:58:40;98294.34;;;24.92;50.90
33163;BME280;29282;45.656;11.302;2022-07-29T06:01:06;98300.66;;;24.89;50.63
33163;BME280;29282;45.656;11.302;2022-07-29T06:03:31;98295.34;;;25.07;50.01
33163;BME280;29282;45.656;11.302;2022-07-29T06:05:57;98286.31;;;25.14;50.36
33163;BME280;29282;45.656;11.302;2022-07-29T06:08:22;98294.75;;;25.24;49.73
33163;BME280;29282;45.656;11.302;2022-07-29T06:10:48;98297.13;;;25.26;49.82
33163;BME280;29282;45.656;11.302;2022-07-29T06:13:14;98287.38;;;25.43;49.48
33163;BME280;29282;45.656;11.302;2022-07-29T06:15:42;98296.63;;;25.54;49.42
33163;BME280;29282;45.656;11.302;2022-07-29T06:18:08;98289.56;;;25.60;49.32
33163;BME280;29282;45.656;11.302;2022-07-29T06:20:34;98288.41;;;25.65;49.19
33163;BME280;29282;45.656;11.302;2022-07-29T06:23:00;98289.63;;;25.67;49.24
33163;BME280;29282;45.656;11.302;2022-07-29T06:25:27;98297.97;;;25.71;49.38
33163;BME280;29282;45.656;11.302;2022-07-29T06:27:56;98288.44;;;25.72;49.17
33163;BME280;29282;45.656;11.302;2022-07-29T06:30:22;98301.56;;;25.75;49.20
33163;BME280;29282;45.656;11.302;2022-07-29T06:32:47;98295.25;;;25.78;48.98
33163;BME280;29282;45.656;11.302;2022-07-29T06:35:13;98299.28;;;25.81;49.08
33163;BME280;29282;45.656;11.302;2022-07-29T06:37:38;98299.28;;;25.84;48.67
33163;BME280;29282;45.656;11.302;2022-07-29T06:40:04;98301.66;;;25.86;48.83
33163;BME280;29282;45.656;11.302;2022-07-29T06:42:48;98303.28;;;25.87;48.64
33163;BME280;29282;45.656;11.302;2022-07-29T06:45:14;98293.38;;;25.89;48.70
33163;BME280;29282;45.656;11.302;2022-07-29T06:47:41;98293.00;;;25.91;48.61
33163;BME280;29282;45.656;11.302;2022-07-29T06:50:07;98287.88;;;25.93;48.66
33163;BME280;29282;45.656;11.302;2022-07-29T06:52:36;98287.06;;;25.96;48.67
33163;BME280;29282;45.656;11.302;2022-07-29T06:55:02;98292.25;;;25.97;48.41
33163;BME280;29282;45.656;11.302;2022-07-29T06:57:27;98290.69;;;26.00;48.63
33163;BME280;29282;45.656;11.302;2022-07-29T06:59:53;98289.94;;;26.03;48.29
33163;BME280;29282;45.656;11.302;2022-07-29T07:02:18;98299.47;;;26.09;48.19
33163;BME280;29282;45.656;11.302;2022-07-29T07:04:44;98291.19;;;26.13;48.29
33163;BME280;29282;45.656;11.302;2022-07-29T07:07:09;98291.59;;;26.15;48.59
33163;BME280;29282;45.656;11.302;2022-07-29T07:09:34;98294.38;;;26.18;48.37
33163;BME280;29282;45.656;11.302;2022-07-29T07:12:00;98295.59;;;26.21;48.40
33163;BME280;29282;45.656;11.302;2022-07-29T07:14:25;98303.56;;;26.22;47.85
33163;BME280;29282;45.656;11.302;2022-07-29T07:16:52;98307.91;;;26.23;48.13
33163;BME280;29282;45.656;11.302;2022-07-29T07:19:17;98294.06;;;26.27;48.30
33163;BME280;29282;45.656;11.302;2022-07-29T07:21:44;98301.97;;;26.29;48.20
33163;BME280;29282;45.656;11.302;2022-07-29T07:24:09;98309.16;;;26.30;47.81
33163;BME280;29282;45.656;11.302;2022-07-29T07:26:35;98300.84;;;26.33;48.15
33163;BME280;29282;45.656;11.302;2022-07-29T07:29:01;98308.38;;;26.33;48.18
33163;BME280;29282;45.656;11.302;2022-07-29T07:31:26;98307.59;;;26.36;47.75
33163;BME280;29282;45.656;11.302;2022-07-29T07:33:52;98308.00;;;26.38;47.87
33163;BME280;29282;45.656;11.302;2022-07-29T07:36:18;98306.00;;;26.38;47.78
33163;BME280;29282;45.656;11.302;2022-07-29T07:38:44;98307.22;;;26.41;47.99
33163;BME280;29282;45.656;11.302;2022-07-29T07:41:09;98311.59;;;26.42;47.95
33163;BME280;29282;45.656;11.302;2022-07-29T07:43:35;98308.44;;;26.43;47.68
33163;BME280;29282;45.656;11.302;2022-07-29T07:46:00;98299.69;;;26.45;48.05
33163;BME280;29282;45.656;11.302;2022-07-29T07:48:26;98302.47;;;26.45;48.06
33163;BME280;29282;45.656;11.302;2022-07-29T07:50:51;98298.53;;;26.46;48.17
33163;BME280;29282;45.656;11.302;2022-07-29T07:53:17;98301.75;;;26.48;47.97
33163;BME280;29282;45.656;11.302;2022-07-29T07:55:43;98303.34;;;26.49;48.28
33163;BME280;29282;45.656;11.302;2022-07-29T07:58:09;98310.09;;;26.52;48.17
33163;BME280;29282;45.656;11.302;2022-07-29T08:00:35;98302.97;;;26.54;47.97
33163;BME280;29282;45.656;11.302;2022-07-29T08:03:01;98311.72;;;26.56;48.15
33163;BME280;29282;45.656;11.302;2022-07-29T08:05:27;98301.78;;;26.55;48.11
33163;BME280;29282;45.656;11.302;2022-07-29T08:07:53;98297.81;;;26.56;48.01
33163;BME280;29282;45.656;11.302;2022-07-29T08:10:19;98304.97;;;26.57;48.07
33163;BME280;29282;45.656;11.302;2022-07-29T08:13:04;98303.78;;;26.58;48.02
33163;BME280;29282;45.656;11.302;2022-07-29T08:15:30;98307.34;;;26.59;48.00
33163;BME280;29282;45.656;11.302;2022-07-29T08:17:56;98302.59;;;26.59;48.00
33163;BME280;29282;45.656;11.302;2022-07-29T08:20:21;98310.53;;;26.61;48.37
33163;BME280;29282;45.656;11.302;2022-07-29T08:22:46;98316.88;;;26.61;48.09
33163;BME280;29282;45.656;11.302;2022-07-29T08:25:12;98308.97;;;26.63;48.21
33163;BME280;29282;45.656;11.302;2022-07-29T08:27:38;98299.44;;;26.64;48.22
33163;BME280;29282;45.656;11.302;2022-07-29T08:30:04;98293.88;;;26.64;48.14
33163;BME280;29282;45.656;11.302;2022-07-29T08:32:29;98287.94;;;26.66;48.06
33163;BME280;29282;45.656;11.302;2022-07-29T08:34:56;98287.94;;;26.66;47.84
33163;BME280;29282;45.656;11.302;2022-07-29T08:37:22;98286.34;;;26.68;48.03
33163;BME280;29282;45.656;11.302;2022-07-29T08:39:48;98281.19;;;26.67;48.09
33163;BME280;29282;45.656;11.302;2022-07-29T08:42:13;98284.00;;;26.70;47.91
33163;BME280;29282;45.656;11.302;2022-07-29T08:44:39;98281.22;;;26.70;47.98
33163;BME280;29282;45.656;11.302;2022-07-29T08:47:05;98282.00;;;26.71;48.01
33163;BME280;29282;45.656;11.302;2022-07-29T08:49:33;98280.00;;;26.71;48.00
33163;BME280;29282;45.656;11.302;2022-07-29T08:52:00;98280.81;;;26.72;47.86
33163;BME280;29282;45.656;11.302;2022-07-29T08:54:25;98277.25;;;26.71;47.99
33163;BME280;29282;45.656;11.302;2022-07-29T08:56:53;98281.63;;;26.73;47.94
33163;BME280;29282;45.656;11.302;2022-07-29T08:59:20;98277.66;;;26.74;47.66
33163;BME280;29282;45.656;11.302;2022-07-29T09:01:48;98283.22;;;26.74;47.84
33163;BME280;29282;45.656;11.302;2022-07-29T09:04:18;98287.97;;;26.73;47.68
33163;BME280;29282;45.656;11.302;2022-07-29T09:06:47;98284.78;;;26.75;48.00
33163;BME280;29282;45.656;11.302;2022-07-29T09:09:13;98284.41;;;26.76;48.14
33163;BME280;29282;45.656;11.302;2022-07-29T09:11:39;98284.41;;;26.76;47.91
33163;BME280;29282;45.656;11.302;2022-07-29T09:14:05;98282.44;;;26.77;47.89
33163;BME280;29282;45.656;11.302;2022-07-29T09:16:53;98285.22;;;26.77;47.91
33163;BME280;29282;45.656;11.302;2022-07-29T09:19:24;98280.44;;;26.77;47.90
33163;BME280;29282;45.656;11.302;2022-07-29T09:21:50;98278.47;;;26.78;47.73
33163;BME280;29282;45.656;11.302;2022-07-29T09:24:26;98277.25;;;26.79;47.68
33163;BME280;29282;45.656;11.302;2022-07-29T09:26:52;98274.47;;;26.79;47.92
33163;BME280;29282;45.656;11.302;2022-07-29T09:29:20;98274.47;;;26.79;47.93
33163;BME280;29282;45.656;11.302;2022-07-29T09:31:48;98268.53;;;26.80;47.60
33163;BME280;29282;45.656;11.302;2022-07-29T09:34:16;98270.53;;;26.80;47.59
33163;BME280;29282;45.656;11.302;2022-07-29T09:36:47;98266.56;;;26.81;47.68
33163;BME280;29282;45.656;11.302;2022-07-29T09:39:13;98268.13;;;26.82;47.72
33163;BME280;29282;45.656;11.302;2022-07-29T09:41:50;98266.19;;;26.82;47.77
33163;BME280;29282;45.656;11.302;2022-07-29T09:44:18;98271.34;;;26.84;47.73
33163;BME280;29282;45.656;11.302;2022-07-29T09:47:01;98265.00;;;26.83;47.91
33163;BME280;29282;45.656;11.302;2022-07-29T09:49:34;98263.78;;;26.84;48.10
33163;BME280;29282;45.656;11.302;2022-07-29T09:52:03;98257.44;;;26.84;47.64
33163;BME280;29282;45.656;11.302;2022-07-29T09:54:29;98251.47;;;26.85;47.96
33163;BME280;29282;45.656;11.302;2022-07-29T09:57:03;98243.97;;;26.86;47.92
33163;BME280;29282;45.656;11.302;2022-07-29T09:59:30;98249.50;;;26.86;47.79
33163;BME280;29282;45.656;11.302;2022-07-29T10:01:55;98252.66;;;26.84;47.80
33163;BME280;29282;45.656;11.302;2022-07-29T10:04:21;98245.91;;;26.85;47.84
33163;BME280;29282;45.656;11.302;2022-07-29T10:06:58;98245.91;;;26.85;47.71
33163;BME280;29282;45.656;11.302;2022-07-29T10:09:23;98245.13;;;26.85;47.66
33163;BME280;29282;45.656;11.302;2022-07-29T10:12:22;98250.69;;;26.85;47.73
33163;BME280;29282;45.656;11.302;2022-07-29T10:14:49;98244.75;;;26.83;47.85
33163;BME280;29282;45.656;11.302;2022-07-29T10:17:15;98247.50;;;26.83;47.72
33163;BME280;29282;45.656;11.302;2022-07-29T10:19:41;98247.50;;;26.83;47.89
33163;BME280;29282;45.656;11.302;2022-07-29T10:22:10;98247.50;;;26.83;47.85
33163;BME280;29282;45.656;11.302;2022-07-29T10:24:37;98250.28;;;26.83;47.46
33163;BME280;29282;45.656;11.302;2022-07-29T10:27:05;98251.09;;;26.83;47.77
33163;BME280;29282;45.656;11.302;2022-07-29T10:29:31;98246.31;;;26.84;47.65
33163;BME280;29282;45.656;11.302;2022-07-29T10:40:25;98232.41;;;26.84;48.02
33163;BME280;29282;45.656;11.302;2022-07-29T10:43:19;98231.22;;;26.85;47.94
33163;BME280;29282;45.656;11.302;2022-07-29T10:45:48;98230.84;;;26.83;48.07
33163;BME280;29282;45.656;11.302;2022-07-29T10:48:13;98226.06;;;26.83;47.86
33163;BME280;29282;45.656;11.302;2022-07-29T10:51:12;98214.94;;;26.83;48.01
33163;BME280;29282;45.656;11.302;2022-07-29T10:53:51;98224.09;;;26.84;48.12
33163;BME280;29282;45.656;11.302;2022-07-29T10:56:28;98215.75;;;26.84;48.29
33163;BME280;29282;45.656;11.302;2022-07-29T11:01:47;98210.97;;;26.81;48.04
33163;BME280;29282;45.656;11.302;2022-07-29T11:04:15;98199.44;;;26.79;47.77
33163;BME280;29282;45.656;11.302;2022-07-29T11:07:06;98203.03;;;26.79;47.93
33163;BME280;29282;45.656;11.302;2022-07-29T11:09:33;98206.97;;;26.78;48.17
33163;BME280;29282;45.656;11.302;2022-07-29T11:11:58;98199.06;;;26.77;48.05
33163;BME280;29282;45.656;11.302;2022-07-29T11:14:58;98200.63;;;26.78;47.87
33163;BME280;29282;45.656;11.302;2022-07-29T11:17:25;98206.97;;;26.78;47.93
33163;BME280;29282;45.656;11.302;2022-07-29T11:19:51;98204.59;;;26.77;47.94
33163;BME280;29282;45.656;11.302;2022-07-29T11:22:35;98194.28;;;26.77;48.05
33163;BME280;29282;45.656;11.302;2022-07-29T11:25:16;98192.28;;;26.78;47.70
33163;BME280;29282;45.656;11.302;2022-07-29T11:27:44;98205.41;;;26.77;47.87
33163;BME280;29282;45.656;11.302;2022-07-29T11:30:10;98195.06;;;26.78;47.97
33163;BME280;29282;45.656;11.302;2022-07-29T11:32:38;98191.50;;;26.77;47.83
33163;BME280;29282;45.656;11.302;2022-07-29T11:35:16;98192.28;;;26.78;47.92
33163;BME280;29282;45.656;11.302;2022-07-29T11:37:42;98186.72;;;26.78;47.76
33163;BME280;29282;45.656;11.302;2022-07-29T11:40:11;98189.50;;;26.78;48.05
33163;BME280;29282;45.656;11.302;2022-07-29T11:42:38;98185.53;;;26.79;48.00
33163;BME280;29282;45.656;11.302;2022-07-29T11:45:10;98185.53;;;26.79;47.98
33163;BME280;29282;45.656;11.302;2022-07-29T11:47:50;98177.19;;;26.79;47.72
33163;BME280;29282;45.656;11.302;2022-07-29T11:50:37;98172.84;;;26.78;47.59
33163;BME280;29282;45.656;11.302;2022-07-29T11:53:10;98183.94;;;26.78;47.83
33163;BME280;29282;45.656;11.302;2022-07-29T11:55:41;98183.16;;;26.77;47.78
33163;BME280;29282;45.656;11.302;2022-07-29T11:58:07;98166.50;;;26.77;47.99
33163;BME280;29282;45.656;11.302;2022-07-29T12:00:38;98173.63;;;26.78;47.80
33163;BME280;29282;45.656;11.302;2022-07-29T12:03:06;98172.84;;;26.78;48.01
33163;BME280;29282;45.656;11.302;2022-07-29T12:08:09;98172.47;;;26.79;47.83
33163;BME280;29282;45.656;11.302;2022-07-29T12:10:36;98170.84;;;26.78;47.87
33163;BME280;29282;45.656;11.302;2022-07-29T12:13:03;98172.81;;;26.74;47.53
33163;BME280;29282;45.656;11.302;2022-07-29T12:15:29;98164.50;;;26.70;47.74
33163;BME280;29282;45.656;11.302;2022-07-29T12:17:57;98163.28;;;26.64;47.57
33163;BME280;29282;45.656;11.302;2022-07-29T12:20:27;98156.50;;;26.62;47.80
33163;BME280;29282;45.656;11.302;2022-07-29T12:22:53;98154.13;;;26.60;47.12
33163;BME280;29282;45.656;11.302;2022-07-29T12:25:22;98160.06;;;26.59;47.00
33163;BME280;29282;45.656;11.302;2022-07-29T12:28:06;98149.38;;;26.57;46.76
33163;BME280;29282;45.656;11.302;2022-07-29T12:30:39;98153.72;;;26.55;46.52
33163;BME280;29282;45.656;11.302;2022-07-29T12:33:19;98150.56;;;26.56;46.04
33163;BME280;29282;45.656;11.302;2022-07-29T12:35:52;98148.16;;;26.55;46.22
33163;BME280;29282;45.656;11.302;2022-07-29T12:38:20;98152.94;;;26.54;45.83
33163;BME280;29282;45.656;11.302;2022-07-29T12:40:48;98158.06;;;26.52;45.83
33163;BME280;29282;45.656;11.302;2022-07-29T12:43:20;98152.50;;;26.52;45.35
33163;BME280;29282;45.656;11.302;2022-07-29T12:45:48;98143.38;;;26.52;45.50
33163;BME280;29282;45.656;11.302;2022-07-29T12:48:16;98148.94;;;26.52;45.24
33163;BME280;29282;45.656;11.302;2022-07-29T12:50:56;98142.59;;;26.51;45.53
33163;BME280;29282;45.656;11.302;2022-07-29T12:53:26;98147.78;;;26.49;44.53
33163;BME280;29282;45.656;11.302;2022-07-29T12:55:55;98131.88;;;26.50;44.70
33163;BME280;29282;45.656;11.302;2022-07-29T13:01:12;98136.66;;;26.49;44.86
33163;BME280;29282;45.656;11.302;2022-07-29T13:03:59;98136.66;;;26.49;44.44
33163;BME280;29282;45.656;11.302;2022-07-29T13:06:44;98133.06;;;26.48;44.72
33163;BME280;29282;45.656;11.302;2022-07-29T13:09:16;98130.66;;;26.47;44.25
33163;BME280;29282;45.656;11.302;2022-07-29T13:14:10;98117.97;;;26.46;43.83
33163;BME280;29282;45.656;11.302;2022-07-29T13:17:01;98114.00;;;26.47;43.54
33163;BME280;29282;45.656;11.302;2022-07-29T13:22:04;98098.94;;;26.52;43.61
33163;BME280;29282;45.656;11.302;2022-07-29T13:24:30;98096.94;;;26.52;43.99
33163;BME280;29282;45.656;11.302;2022-07-29T13:26:55;98091.81;;;26.54;43.97
33163;BME280;29282;45.656;11.302;2022-07-29T13:29:21;98090.59;;;26.55;44.11
33163;BME280;29282;45.656;11.302;2022-07-29T13:31:46;98088.25;;;26.57;44.16